sensor_id;sensor_type;location;lat;lon;timestamp;P1;durP1;ratioP1;P2;durP2;ratioP2
1799;SDS011;919;48.274;12.292;2023-12-07T00:00:26;10.30;;;7.40;;
1799;SDS011;919;48.274;12.292;2023-12-07T00:02:53;9.80;;;6.77;;
1799;SDS011;919;48.274;12.292;2023-12-07T00:05:19;10.93;;;7.90;;
1799;SDS011;919;48.274;12.292;2023-12-07T00:07:46;10.90;;;7.53;;
1799;SDS011;919;48.274;12.292;2023-12-07T00:10:14;11.00;;;7.30;;
1799;SDS011;919;48.274;12.292;2023-12-07T00:12:41;9.20;;;7.00;;
1799;SDS011;919;48.274;12.292;2023-12-07T00:15:08;12.50;;;8.73;;
1799;SDS011;919;48.274;12.292;2023-12-07T00:17:35;8.03;;;6.20;;
1799;SDS011;919;48.274;12.292;2023-12-07T00:20:03;12.40;;;8.47;;
1799;SDS011;919;48.274;12.292;2023-12-07T00:22:30;12.73;;;8.30;;
1799;SDS011;919;48.274;12.292;2023-12-07T00:24:57;13.20;;;8.67;;
1799;SDS011;919;48.274;12.292;2023-12-07T00:27:25;15.77;;;9.83;;
1799;SDS011;919;48.274;12.292;2023-12-07T00:29:51;14.67;;;8.90;;
1799;SDS011;919;48.274;12.292;2023-12-07T00:32:18;13.00;;;8.73;;
1799;SDS011;919;48.274;12.292;2023-12-07T00:34:45;10.77;;;7.90;;
1799;SDS011;919;48.274;12.292;2023-12-07T00:37:11;10.67;;;7.43;;
1799;SDS011;919;48.274;12.292;2023-12-07T00:39:40;12.93;;;8.30;;
1799;SDS011;919;48.274;12.292;2023-12-07T00:42:06;12.80;;;9.23;;
1799;SDS011;919;48.274;12.292;2023-12-07T00:44:35;12.23;;;8.33;;
1799;SDS011;919;48.274;12.292;2023-12-07T00:47:05;14.80;;;9.93;;
1799;SDS011;919;48.274;12.292;2023-12-07T00:49:32;11.43;;;8.30;;
1799;SDS011;919;48.274;12.292;2023-12-07T00:51:59;11.37;;;7.93;;
1799;SDS011;919;48.274;12.292;2023-12-07T00:54:25;11.87;;;9.40;;
1799;SDS011;919;48.274;12.292;2023-12-07T00:56:52;9.77;;;7.90;;
1799;SDS011;919;48.274;12.292;2023-12-07T00:59:19;12.60;;;8.77;;
1799;SDS011;919;48.274;12.292;2023-12-07T01:01:47;10.90;;;8.63;;
1799;SDS011;919;48.274;12.292;2023-12-07T01:04:13;10.20;;;7.90;;
1799;SDS011;919;48.274;12.292;2023-12-07T01:06:41;13.27;;;8.10;;
1799;SDS011;919;48.274;12.292;2023-12-07T01:09:07;13.07;;;8.80;;
1799;SDS011;919;48.274;12.292;2023-12-07T01:11:38;12.90;;;9.00;;
1799;SDS011;919;48.274;12.292;2023-12-07T01:14:05;11.93;;;7.97;;
1799;SDS011;919;48.274;12.292;2023-12-07T01:16:32;10.83;;;8.17;;
1799;SDS011;919;48.274;12.292;2023-12-07T01:19:00;12.67;;;8.90;;
1799;SDS011;919;48.274;12.292;2023-12-07T01:21:26;14.30;;;8.53;;
1799;SDS011;919;48.274;12.292;2023-12-07T01:23:53;12.27;;;8.23;;
1799;SDS011;919;48.274;12.292;2023-12-07T01:26:20;11.90;;;8.87;;
1799;SDS011;919;48.274;12.292;2023-12-07T01:28:47;11.60;;;7.30;;
1799;SDS011;919;48.274;12.292;2023-12-07T01:31:13;10.87;;;8.03;;
1799;SDS011;919;48.274;12.292;2023-12-07T01:33:39;12.97;;;9.10;;
1799;SDS011;919;48.274;12.292;2023-12-07T01:36:07;17.10;;;7.33;;
1799;SDS011;919;48.274;12.292;2023-12-07T01:38:34;13.10;;;8.93;;
1799;SDS011;919;48.274;12.292;2023-12-07T01:41:01;13.27;;;9.40;;
1799;SDS011;919;48.274;12.292;2023-12-07T01:43:28;11.20;;;7.97;;
1799;SDS011;919;48.274;12.292;2023-12-07T01:45:56;10.77;;;7.43;;
1799;SDS011;919;48.274;12.292;2023-12-07T01:48:24;12.07;;;7.87;;
1799;SDS011;919;48.274;12.292;2023-12-07T01:50:52;10.30;;;7.43;;
1799;SDS011;919;48.274;12.292;2023-12-07T01:53:21;10.20;;;7.27;;
1799;SDS011;919;48.274;12.292;2023-12-07T01:55:49;11.40;;;7.80;;
1799;SDS011;919;48.274;12.292;2023-12-07T01:58:17;12.03;;;8.00;;
1799;SDS011;919;48.274;12.292;2023-12-07T02:00:45;8.73;;;6.47;;
1799;SDS011;919;48.274;12.292;2023-12-07T02:03:12;9.60;;;6.70;;
1799;SDS011;919;48.274;12.292;2023-12-07T02:05:39;9.37;;;6.73;;
1799;SDS011;919;48.274;12.292;2023-12-07T02:08:08;10.80;;;7.00;;
1799;SDS011;919;48.274;12.292;2023-12-07T02:10:36;10.73;;;7.40;;
1799;SDS011;919;48.274;12.292;2023-12-07T02:13:03;12.77;;;8.60;;
1799;SDS011;919;48.274;12.292;2023-12-07T02:15:30;13.47;;;8.47;;
1799;SDS011;919;48.274;12.292;2023-12-07T02:17:58;10.77;;;7.67;;
1799;SDS011;919;48.274;12.292;2023-12-07T02:20:30;9.20;;;7.17;;
1799;SDS011;919;48.274;12.292;2023-12-07T02:23:03;13.83;;;8.90;;
1799;SDS011;919;48.274;12.292;2023-12-07T02:25:35;14.30;;;9.63;;
1799;SDS011;919;48.274;12.292;2023-12-07T02:28:07;12.97;;;9.10;;
1799;SDS011;919;48.274;12.292;2023-12-07T02:30:34;12.77;;;9.13;;
1799;SDS011;919;48.274;12.292;2023-12-07T02:33:01;16.47;;;9.97;;
1799;SDS011;919;48.274;12.292;2023-12-07T02:35:29;15.70;;;9.20;;
1799;SDS011;919;48.274;12.292;2023-12-07T02:37:58;14.97;;;7.83;;
1799;SDS011;919;48.274;12.292;2023-12-07T02:40:27;13.90;;;9.10;;
1799;SDS011;919;48.274;12.292;2023-12-07T02:42:55;10.80;;;8.17;;
1799;SDS011;919;48.274;12.292;2023-12-07T02:45:23;10.17;;;7.90;;
1799;SDS011;919;48.274;12.292;2023-12-07T02:47:51;12.63;;;8.40;;
1799;SDS011;919;48.274;12.292;2023-12-07T02:50:18;12.57;;;8.93;;
1799;SDS011;919;48.274;12.292;2023-12-07T02:52:45;13.30;;;7.20;;
1799;SDS011;919;48.274;12.292;2023-12-07T02:55:11;13.53;;;8.80;;
1799;SDS011;919;48.274;12.292;2023-12-07T02:57:38;10.03;;;7.63;;
1799;SDS011;919;48.274;12.292;2023-12-07T03:00:05;13.53;;;8.07;;
1799;SDS011;919;48.274;12.292;2023-12-07T03:02:34;12.60;;;7.70;;
1799;SDS011;919;48.274;12.292;2023-12-07T03:05:01;13.10;;;9.43;;
1799;SDS011;919;48.274;12.292;2023-12-07T03:07:29;13.13;;;9.47;;
1799;SDS011;919;48.274;12.292;2023-12-07T03:09:55;48.23;;;9.13;;
1799;SDS011;919;48.274;12.292;2023-12-07T03:12:22;23.50;;;10.93;;
1799;SDS011;919;48.274;12.292;2023-12-07T03:14:49;25.80;;;10.57;;
1799;SDS011;919;48.274;12.292;2023-12-07T03:17:16;22.00;;;8.87;;
1799;SDS011;919;48.274;12.292;2023-12-07T03:19:44;19.57;;;7.37;;
1799;SDS011;919;48.274;12.292;2023-12-07T03:22:10;12.33;;;7.70;;
1799;SDS011;919;48.274;12.292;2023-12-07T03:24:38;17.63;;;8.10;;
1799;SDS011;919;48.274;12.292;2023-12-07T03:27:06;14.33;;;8.00;;
1799;SDS011;919;48.274;12.292;2023-12-07T03:29:32;15.87;;;7.80;;
1799;SDS011;919;48.274;12.292;2023-12-07T03:31:59;19.73;;;10.03;;
1799;SDS011;919;48.274;12.292;2023-12-07T03:34:26;18.33;;;8.37;;
1799;SDS011;919;48.274;12.292;2023-12-07T03:36:54;11.77;;;7.83;;
1799;SDS011;919;48.274;12.292;2023-12-07T03:39:20;13.93;;;8.17;;
1799;SDS011;919;48.274;12.292;2023-12-07T03:41:48;13.67;;;7.10;;
1799;SDS011;919;48.274;12.292;2023-12-07T03:44:14;14.10;;;7.77;;
1799;SDS011;919;48.274;12.292;2023-12-07T03:46:41;10.50;;;8.17;;
1799;SDS011;919;48.274;12.292;2023-12-07T03:49:08;13.70;;;9.00;;
1799;SDS011;919;48.274;12.292;2023-12-07T03:51:34;14.83;;;8.30;;
1799;SDS011;919;48.274;12.292;2023-12-07T03:54:03;13.60;;;9.10;;
1799;SDS011;919;48.274;12.292;2023-12-07T03:56:30;12.90;;;8.40;;
1799;SDS011;919;48.274;12.292;2023-12-07T03:58:58;15.30;;;8.87;;
1799;SDS011;919;48.274;12.292;2023-12-07T04:01:26;8.67;;;6.63;;
1799;SDS011;919;48.274;12.292;2023-12-07T04:03:54;13.50;;;7.77;;
1799;SDS011;919;48.274;12.292;2023-12-07T04:06:22;12.10;;;7.47;;
1799;SDS011;919;48.274;12.292;2023-12-07T04:08:49;14.23;;;8.40;;
1799;SDS011;919;48.274;12.292;2023-12-07T04:11:17;12.50;;;7.87;;
1799;SDS011;919;48.274;12.292;2023-12-07T04:13:44;12.23;;;7.77;;
1799;SDS011;919;48.274;12.292;2023-12-07T04:16:12;12.33;;;8.00;;
1799;SDS011;919;48.274;12.292;2023-12-07T04:18:39;12.67;;;7.80;;
1799;SDS011;919;48.274;12.292;2023-12-07T04:21:06;17.20;;;8.97;;
1799;SDS011;919;48.274;12.292;2023-12-07T04:23:33;17.93;;;9.97;;
1799;SDS011;919;48.274;12.292;2023-12-07T04:25:59;13.13;;;9.50;;
1799;SDS011;919;48.274;12.292;2023-12-07T04:28:28;19.03;;;9.50;;
1799;SDS011;919;48.274;12.292;2023-12-07T04:30:54;14.63;;;8.57;;
1799;SDS011;919;48.274;12.292;2023-12-07T04:33:21;16.93;;;10.70;;
1799;SDS011;919;48.274;12.292;2023-12-07T04:35:48;12.73;;;7.83;;
1799;SDS011;919;48.274;12.292;2023-12-07T04:38:15;16.57;;;10.43;;
1799;SDS011;919;48.274;12.292;2023-12-07T04:40:41;12.07;;;7.67;;
1799;SDS011;919;48.274;12.292;2023-12-07T04:43:08;13.67;;;7.87;;
1799;SDS011;919;48.274;12.292;2023-12-07T04:45:36;9.53;;;7.30;;
1799;SDS011;919;48.274;12.292;2023-12-07T04:48:03;9.13;;;6.60;;
1799;SDS011;919;48.274;12.292;2023-12-07T04:50:30;10.77;;;7.27;;
1799;SDS011;919;48.274;12.292;2023-12-07T04:52:57;10.77;;;6.73;;
1799;SDS011;919;48.274;12.292;2023-12-07T04:55:24;9.27;;;7.07;;
1799;SDS011;919;48.274;12.292;2023-12-07T04:57:51;9.77;;;7.77;;
1799;SDS011;919;48.274;12.292;2023-12-07T05:00:18;26.60;;;7.20;;
1799;SDS011;919;48.274;12.292;2023-12-07T05:02:46;8.47;;;5.93;;
1799;SDS011;919;48.274;12.292;2023-12-07T05:05:13;35.47;;;10.70;;
1799;SDS011;919;48.274;12.292;2023-12-07T05:07:40;10.77;;;6.33;;
1799;SDS011;919;48.274;12.292;2023-12-07T05:10:07;23.13;;;11.10;;
1799;SDS011;919;48.274;12.292;2023-12-07T05:12:34;24.93;;;9.73;;
1799;SDS011;919;48.274;12.292;2023-12-07T05:15:01;16.90;;;9.53;;
1799;SDS011;919;48.274;12.292;2023-12-07T05:17:29;16.17;;;8.80;;
1799;SDS011;919;48.274;12.292;2023-12-07T05:19:57;11.70;;;7.70;;
1799;SDS011;919;48.274;12.292;2023-12-07T05:22:24;12.07;;;7.50;;
1799;SDS011;919;48.274;12.292;2023-12-07T05:24:50;11.03;;;7.63;;
1799;SDS011;919;48.274;12.292;2023-12-07T05:27:17;12.50;;;8.40;;
1799;SDS011;919;48.274;12.292;2023-12-07T05:29:44;13.23;;;8.10;;
1799;SDS011;919;48.274;12.292;2023-12-07T05:32:10;10.33;;;7.73;;
1799;SDS011;919;48.274;12.292;2023-12-07T05:34:37;10.73;;;7.17;;
1799;SDS011;919;48.274;12.292;2023-12-07T05:37:05;17.70;;;9.17;;
1799;SDS011;919;48.274;12.292;2023-12-07T05:39:32;11.87;;;8.13;;
1799;SDS011;919;48.274;12.292;2023-12-07T05:41:58;14.73;;;9.03;;
1799;SDS011;919;48.274;12.292;2023-12-07T05:44:25;16.27;;;8.13;;
1799;SDS011;919;48.274;12.292;2023-12-07T05:46:52;13.30;;;8.80;;
1799;SDS011;919;48.274;12.292;2023-12-07T05:49:19;12.43;;;8.00;;
1799;SDS011;919;48.274;12.292;2023-12-07T05:51:47;12.57;;;7.30;;
1799;SDS011;919;48.274;12.292;2023-12-07T05:54:15;11.50;;;7.23;;
1799;SDS011;919;48.274;12.292;2023-12-07T05:56:42;14.20;;;9.30;;
1799;SDS011;919;48.274;12.292;2023-12-07T05:59:09;13.07;;;8.40;;
1799;SDS011;919;48.274;12.292;2023-12-07T06:01:36;19.17;;;9.90;;
1799;SDS011;919;48.274;12.292;2023-12-07T06:04:03;11.33;;;8.17;;
1799;SDS011;919;48.274;12.292;2023-12-07T06:06:29;13.93;;;8.20;;
1799;SDS011;919;48.274;12.292;2023-12-07T06:08:56;13.57;;;8.40;;
1799;SDS011;919;48.274;12.292;2023-12-07T06:11:24;12.53;;;7.93;;
1799;SDS011;919;48.274;12.292;2023-12-07T06:13:51;14.60;;;9.37;;
1799;SDS011;919;48.274;12.292;2023-12-07T06:16:18;14.10;;;9.13;;
1799;SDS011;919;48.274;12.292;2023-12-07T06:18:44;14.20;;;8.57;;
1799;SDS011;919;48.274;12.292;2023-12-07T06:21:13;15.70;;;8.70;;
1799;SDS011;919;48.274;12.292;2023-12-07T06:23:40;13.70;;;8.20;;
1799;SDS011;919;48.274;12.292;2023-12-07T06:26:07;14.30;;;9.40;;
1799;SDS011;919;48.274;12.292;2023-12-07T06:28:35;14.53;;;8.67;;
1799;SDS011;919;48.274;12.292;2023-12-07T06:31:04;17.17;;;9.50;;
1799;SDS011;919;48.274;12.292;2023-12-07T06:33:32;12.90;;;8.57;;
1799;SDS011;919;48.274;12.292;2023-12-07T06:35:59;22.10;;;10.67;;
1799;SDS011;919;48.274;12.292;2023-12-07T06:38:26;19.23;;;9.97;;
1799;SDS011;919;48.274;12.292;2023-12-07T06:40:53;20.20;;;10.70;;
1799;SDS011;919;48.274;12.292;2023-12-07T06:43:19;25.17;;;13.00;;
1799;SDS011;919;48.274;12.292;2023-12-07T06:45:47;20.10;;;11.80;;
1799;SDS011;919;48.274;12.292;2023-12-07T06:48:14;19.30;;;11.10;;
1799;SDS011;919;48.274;12.292;2023-12-07T06:50:41;14.43;;;10.33;;
1799;SDS011;919;48.274;12.292;2023-12-07T06:53:07;12.20;;;8.27;;
1799;SDS011;919;48.274;12.292;2023-12-07T06:55:34;14.53;;;8.50;;
1799;SDS011;919;48.274;12.292;2023-12-07T06:58:01;11.20;;;7.93;;
1799;SDS011;919;48.274;12.292;2023-12-07T07:00:27;11.10;;;7.27;;
1799;SDS011;919;48.274;12.292;2023-12-07T07:02:55;7.47;;;5.90;;
1799;SDS011;919;48.274;12.292;2023-12-07T07:05:22;8.40;;;6.10;;
1799;SDS011;919;48.274;12.292;2023-12-07T07:07:49;8.67;;;6.70;;
1799;SDS011;919;48.274;12.292;2023-12-07T07:10:16;9.00;;;6.63;;
1799;SDS011;919;48.274;12.292;2023-12-07T07:12:43;12.83;;;7.30;;
1799;SDS011;919;48.274;12.292;2023-12-07T07:15:09;10.30;;;7.30;;
1799;SDS011;919;48.274;12.292;2023-12-07T07:17:36;12.93;;;7.80;;
1799;SDS011;919;48.274;12.292;2023-12-07T07:20:05;15.77;;;9.03;;
1799;SDS011;919;48.274;12.292;2023-12-07T07:22:32;21.20;;;10.90;;
1799;SDS011;919;48.274;12.292;2023-12-07T07:24:59;13.23;;;8.43;;
1799;SDS011;919;48.274;12.292;2023-12-07T07:27:25;12.60;;;8.00;;
1799;SDS011;919;48.274;12.292;2023-12-07T07:29:52;19.03;;;9.07;;
1799;SDS011;919;48.274;12.292;2023-12-07T07:32:18;20.73;;;11.77;;
1799;SDS011;919;48.274;12.292;2023-12-07T07:34:45;17.07;;;10.60;;
1799;SDS011;919;48.274;12.292;2023-12-07T07:37:13;18.57;;;9.47;;
1799;SDS011;919;48.274;12.292;2023-12-07T07:39:40;18.93;;;9.70;;
1799;SDS011;919;48.274;12.292;2023-12-07T07:42:06;16.53;;;10.57;;
1799;SDS011;919;48.274;12.292;2023-12-07T07:44:33;15.60;;;9.90;;
1799;SDS011;919;48.274;12.292;2023-12-07T07:47:00;14.47;;;9.47;;
1799;SDS011;919;48.274;12.292;2023-12-07T07:49:26;17.30;;;10.93;;
1799;SDS011;919;48.274;12.292;2023-12-07T07:51:53;15.67;;;10.17;;
1799;SDS011;919;48.274;12.292;2023-12-07T07:54:21;14.53;;;8.73;;
1799;SDS011;919;48.274;12.292;2023-12-07T07:56:47;12.73;;;9.33;;
1799;SDS011;919;48.274;12.292;2023-12-07T07:59:14;14.33;;;8.27;;
1799;SDS011;919;48.274;12.292;2023-12-07T08:01:41;14.30;;;9.37;;
1799;SDS011;919;48.274;12.292;2023-12-07T08:04:08;10.57;;;8.00;;
1799;SDS011;919;48.274;12.292;2023-12-07T08:06:36;13.67;;;8.43;;
1799;SDS011;919;48.274;12.292;2023-12-07T08:09:03;11.37;;;7.40;;
1799;SDS011;919;48.274;12.292;2023-12-07T08:11:31;13.70;;;7.97;;
1799;SDS011;919;48.274;12.292;2023-12-07T08:13:58;11.80;;;7.83;;
1799;SDS011;919;48.274;12.292;2023-12-07T08:16:25;14.10;;;8.90;;
1799;SDS011;919;48.274;12.292;2023-12-07T08:18:52;12.93;;;7.90;;
1799;SDS011;919;48.274;12.292;2023-12-07T08:21:20;13.50;;;9.10;;
1799;SDS011;919;48.274;12.292;2023-12-07T08:23:47;18.77;;;9.50;;
1799;SDS011;919;48.274;12.292;2023-12-07T08:26:14;19.87;;;7.97;;
1799;SDS011;919;48.274;12.292;2023-12-07T08:28:42;11.17;;;7.80;;
1799;SDS011;919;48.274;12.292;2023-12-07T08:31:09;13.90;;;8.20;;
1799;SDS011;919;48.274;12.292;2023-12-07T08:33:35;13.50;;;9.53;;
1799;SDS011;919;48.274;12.292;2023-12-07T08:36:04;12.90;;;8.27;;
1799;SDS011;919;48.274;12.292;2023-12-07T08:38:33;10.87;;;8.13;;
1799;SDS011;919;48.274;12.292;2023-12-07T08:41:00;11.70;;;8.53;;
1799;SDS011;919;48.274;12.292;2023-12-07T08:43:27;11.90;;;7.90;;
1799;SDS011;919;48.274;12.292;2023-12-07T08:45:56;12.00;;;8.50;;
1799;SDS011;919;48.274;12.292;2023-12-07T08:48:23;15.23;;;9.43;;
1799;SDS011;919;48.274;12.292;2023-12-07T08:50:50;13.43;;;8.60;;
1799;SDS011;919;48.274;12.292;2023-12-07T08:53:17;14.17;;;8.80;;
1799;SDS011;919;48.274;12.292;2023-12-07T08:55:44;13.70;;;9.30;;
1799;SDS011;919;48.274;12.292;2023-12-07T08:58:10;12.43;;;8.23;;
1799;SDS011;919;48.274;12.292;2023-12-07T09:00:37;10.70;;;8.03;;
1799;SDS011;919;48.274;12.292;2023-12-07T09:03:05;11.23;;;8.17;;
1799;SDS011;919;48.274;12.292;2023-12-07T09:05:32;16.53;;;8.63;;
1799;SDS011;919;48.274;12.292;2023-12-07T09:07:59;14.00;;;9.30;;
1799;SDS011;919;48.274;12.292;2023-12-07T09:10:25;9.93;;;7.77;;
1799;SDS011;919;48.274;12.292;2023-12-07T09:12:53;12.43;;;7.87;;
1799;SDS011;919;48.274;12.292;2023-12-07T09:15:19;12.00;;;8.27;;
1799;SDS011;919;48.274;12.292;2023-12-07T09:17:47;15.60;;;9.27;;
1799;SDS011;919;48.274;12.292;2023-12-07T09:20:16;15.87;;;10.07;;
1799;SDS011;919;48.274;12.292;2023-12-07T09:22:42;16.37;;;11.00;;
1799;SDS011;919;48.274;12.292;2023-12-07T09:25:10;14.40;;;10.33;;
1799;SDS011;919;48.274;12.292;2023-12-07T09:27:37;15.77;;;10.00;;
1799;SDS011;919;48.274;12.292;2023-12-07T09:30:05;15.00;;;9.73;;
1799;SDS011;919;48.274;12.292;2023-12-07T09:32:35;12.57;;;8.40;;
1799;SDS011;919;48.274;12.292;2023-12-07T09:35:03;10.30;;;7.43;;
1799;SDS011;919;48.274;12.292;2023-12-07T09:37:32;13.97;;;8.73;;
1799;SDS011;919;48.274;12.292;2023-12-07T09:39:59;14.60;;;10.00;;
1799;SDS011;919;48.274;12.292;2023-12-07T09:42:26;13.20;;;10.40;;
1799;SDS011;919;48.274;12.292;2023-12-07T09:44:53;13.17;;;9.83;;
1799;SDS011;919;48.274;12.292;2023-12-07T09:47:20;12.00;;;8.33;;
1799;SDS011;919;48.274;12.292;2023-12-07T09:49:47;15.67;;;9.80;;
1799;SDS011;919;48.274;12.292;2023-12-07T09:52:13;11.97;;;9.03;;
1799;SDS011;919;48.274;12.292;2023-12-07T09:54:43;16.10;;;9.90;;
1799;SDS011;919;48.274;12.292;2023-12-07T09:57:11;16.10;;;10.90;;
1799;SDS011;919;48.274;12.292;2023-12-07T09:59:39;16.00;;;10.70;;
1799;SDS011;919;48.274;12.292;2023-12-07T10:02:06;15.77;;;10.57;;
1799;SDS011;919;48.274;12.292;2023-12-07T10:04:33;15.60;;;11.10;;
1799;SDS011;919;48.274;12.292;2023-12-07T10:07:01;13.77;;;9.57;;
1799;SDS011;919;48.274;12.292;2023-12-07T10:09:28;15.37;;;10.60;;
1799;SDS011;919;48.274;12.292;2023-12-07T10:12:02;12.07;;;10.20;;
1799;SDS011;919;48.274;12.292;2023-12-07T10:14:30;11.93;;;9.10;;
1799;SDS011;919;48.274;12.292;2023-12-07T10:16:56;14.30;;;10.10;;
1799;SDS011;919;48.274;12.292;2023-12-07T10:19:23;12.27;;;8.80;;
1799;SDS011;919;48.274;12.292;2023-12-07T10:21:50;10.87;;;8.97;;
1799;SDS011;919;48.274;12.292;2023-12-07T10:24:18;16.27;;;9.77;;
1799;SDS011;919;48.274;12.292;2023-12-07T10:26:46;14.67;;;10.60;;
1799;SDS011;919;48.274;12.292;2023-12-07T10:29:14;14.47;;;10.47;;
1799;SDS011;919;48.274;12.292;2023-12-07T10:31:43;16.50;;;10.77;;
1799;SDS011;919;48.274;12.292;2023-12-07T10:34:11;15.50;;;10.97;;
1799;SDS011;919;48.274;12.292;2023-12-07T10:36:39;14.60;;;10.40;;
1799;SDS011;919;48.274;12.292;2023-12-07T10:39:05;14.20;;;11.13;;
1799;SDS011;919;48.274;12.292;2023-12-07T10:41:33;12.47;;;9.00;;
1799;SDS011;919;48.274;12.292;2023-12-07T10:44:04;9.60;;;8.60;;
1799;SDS011;919;48.274;12.292;2023-12-07T10:46:34;13.50;;;10.67;;
1799;SDS011;919;48.274;12.292;2023-12-07T10:49:03;13.03;;;10.30;;
1799;SDS011;919;48.274;12.292;2023-12-07T10:51:34;14.33;;;10.70;;
1799;SDS011;919;48.274;12.292;2023-12-07T10:54:07;15.77;;;10.53;;
1799;SDS011;919;48.274;12.292;2023-12-07T10:56:38;14.80;;;10.97;;
1799;SDS011;919;48.274;12.292;2023-12-07T10:59:06;13.00;;;9.97;;
1799;SDS011;919;48.274;12.292;2023-12-07T11:01:37;14.80;;;11.27;;
1799;SDS011;919;48.274;12.292;2023-12-07T11:04:05;15.47;;;10.90;;
1799;SDS011;919;48.274;12.292;2023-12-07T11:06:32;14.07;;;11.23;;
1799;SDS011;919;48.274;12.292;2023-12-07T11:09:00;17.57;;;11.40;;
1799;SDS011;919;48.274;12.292;2023-12-07T11:11:33;14.13;;;10.43;;
1799;SDS011;919;48.274;12.292;2023-12-07T11:14:07;15.83;;;10.80;;
1799;SDS011;919;48.274;12.292;2023-12-07T11:16:39;16.07;;;11.47;;
1799;SDS011;919;48.274;12.292;2023-12-07T11:22:09;13.07;;;10.40;;
1799;SDS011;919;48.274;12.292;2023-12-07T11:24:37;15.93;;;11.40;;
1799;SDS011;919;48.274;12.292;2023-12-07T11:27:03;15.97;;;11.93;;
1799;SDS011;919;48.274;12.292;2023-12-07T11:29:31;11.30;;;10.10;;
1799;SDS011;919;48.274;12.292;2023-12-07T11:32:01;15.93;;;12.80;;
1799;SDS011;919;48.274;12.292;2023-12-07T11:34:34;14.93;;;10.50;;
1799;SDS011;919;48.274;12.292;2023-12-07T11:37:01;15.10;;;10.97;;
1799;SDS011;919;48.274;12.292;2023-12-07T11:39:28;13.83;;;10.83;;
1799;SDS011;919;48.274;12.292;2023-12-07T11:41:58;19.60;;;12.60;;
1799;SDS011;919;48.274;12.292;2023-12-07T11:44:33;16.00;;;12.73;;
1799;SDS011;919;48.274;12.292;2023-12-07T11:47:02;15.13;;;11.30;;
1799;SDS011;919;48.274;12.292;2023-12-07T11:49:29;16.73;;;11.80;;
1799;SDS011;919;48.274;12.292;2023-12-07T11:51:57;15.63;;;12.23;;
1799;SDS011;919;48.274;12.292;2023-12-07T11:54:22;14.13;;;11.23;;
1799;SDS011;919;48.274;12.292;2023-12-07T11:56:51;13.70;;;10.63;;
1799;SDS011;919;48.274;12.292;2023-12-07T11:59:18;15.93;;;10.60;;
1799;SDS011;919;48.274;12.292;2023-12-07T12:01:46;13.53;;;11.40;;
1799;SDS011;919;48.274;12.292;2023-12-07T12:04:14;14.23;;;11.13;;
1799;SDS011;919;48.274;12.292;2023-12-07T12:06:42;14.87;;;10.80;;
1799;SDS011;919;48.274;12.292;2023-12-07T12:09:09;16.37;;;12.23;;
1799;SDS011;919;48.274;12.292;2023-12-07T12:11:43;15.13;;;10.97;;
1799;SDS011;919;48.274;12.292;2023-12-07T12:14:11;16.03;;;11.47;;
1799;SDS011;919;48.274;12.292;2023-12-07T12:16:38;16.67;;;11.97;;
1799;SDS011;919;48.274;12.292;2023-12-07T12:19:05;14.23;;;10.60;;
1799;SDS011;919;48.274;12.292;2023-12-07T12:21:34;14.00;;;10.97;;
1799;SDS011;919;48.274;12.292;2023-12-07T12:24:03;16.80;;;10.33;;
1799;SDS011;919;48.274;12.292;2023-12-07T12:26:31;13.70;;;10.60;;
1799;SDS011;919;48.274;12.292;2023-12-07T12:28:58;16.30;;;11.17;;
1799;SDS011;919;48.274;12.292;2023-12-07T12:31:25;15.57;;;11.90;;
1799;SDS011;919;48.274;12.292;2023-12-07T12:33:53;14.90;;;11.93;;
1799;SDS011;919;48.274;12.292;2023-12-07T12:36:20;15.77;;;11.70;;
1799;SDS011;919;48.274;12.292;2023-12-07T12:38:49;13.60;;;11.07;;
1799;SDS011;919;48.274;12.292;2023-12-07T12:41:17;13.07;;;9.50;;
1799;SDS011;919;48.274;12.292;2023-12-07T12:43:44;14.63;;;10.50;;
1799;SDS011;919;48.274;12.292;2023-12-07T12:46:11;17.10;;;10.57;;
1799;SDS011;919;48.274;12.292;2023-12-07T12:48:52;13.20;;;10.97;;
1799;SDS011;919;48.274;12.292;2023-12-07T12:51:20;14.20;;;11.10;;
1799;SDS011;919;48.274;12.292;2023-12-07T12:53:50;17.27;;;10.43;;
1799;SDS011;919;48.274;12.292;2023-12-07T12:56:17;14.17;;;10.17;;
1799;SDS011;919;48.274;12.292;2023-12-07T12:58:45;13.17;;;9.87;;
1799;SDS011;919;48.274;12.292;2023-12-07T13:01:12;11.93;;;9.00;;
1799;SDS011;919;48.274;12.292;2023-12-07T13:03:38;10.80;;;8.83;;
1799;SDS011;919;48.274;12.292;2023-12-07T13:06:05;14.10;;;10.63;;
1799;SDS011;919;48.274;12.292;2023-12-07T13:08:32;11.93;;;9.90;;
1799;SDS011;919;48.274;12.292;2023-12-07T13:11:00;12.93;;;9.87;;
1799;SDS011;919;48.274;12.292;2023-12-07T13:13:27;15.00;;;10.90;;
1799;SDS011;919;48.274;12.292;2023-12-07T13:15:54;10.93;;;8.97;;
1799;SDS011;919;48.274;12.292;2023-12-07T13:18:21;14.33;;;9.97;;
1799;SDS011;919;48.274;12.292;2023-12-07T13:20:48;11.60;;;9.27;;
1799;SDS011;919;48.274;12.292;2023-12-07T13:23:14;13.10;;;9.30;;
1799;SDS011;919;48.274;12.292;2023-12-07T13:25:41;13.53;;;9.57;;
1799;SDS011;919;48.274;12.292;2023-12-07T13:28:09;11.77;;;8.80;;
1799;SDS011;919;48.274;12.292;2023-12-07T13:30:36;12.90;;;9.37;;
1799;SDS011;919;48.274;12.292;2023-12-07T13:33:04;12.73;;;9.53;;
1799;SDS011;919;48.274;12.292;2023-12-07T13:35:31;14.23;;;9.67;;
1799;SDS011;919;48.274;12.292;2023-12-07T13:37:58;15.27;;;9.00;;
1799;SDS011;919;48.274;12.292;2023-12-07T13:40:25;15.33;;;10.30;;
1799;SDS011;919;48.274;12.292;2023-12-07T13:42:52;14.37;;;9.57;;
1799;SDS011;919;48.274;12.292;2023-12-07T13:45:20;11.47;;;8.63;;
1799;SDS011;919;48.274;12.292;2023-12-07T13:47:46;13.60;;;9.83;;
1799;SDS011;919;48.274;12.292;2023-12-07T13:50:13;14.03;;;9.60;;
1799;SDS011;919;48.274;12.292;2023-12-07T13:52:40;11.33;;;9.07;;
1799;SDS011;919;48.274;12.292;2023-12-07T13:55:07;11.70;;;9.07;;
1799;SDS011;919;48.274;12.292;2023-12-07T13:57:34;13.33;;;9.67;;
1799;SDS011;919;48.274;12.292;2023-12-07T14:00:01;13.40;;;9.80;;
1799;SDS011;919;48.274;12.292;2023-12-07T14:02:29;11.60;;;9.00;;
1799;SDS011;919;48.274;12.292;2023-12-07T14:04:56;12.47;;;9.60;;
1799;SDS011;919;48.274;12.292;2023-12-07T14:07:22;15.10;;;10.10;;
1799;SDS011;919;48.274;12.292;2023-12-07T14:09:50;14.17;;;9.63;;
1799;SDS011;919;48.274;12.292;2023-12-07T14:12:17;10.10;;;8.87;;
1799;SDS011;919;48.274;12.292;2023-12-07T14:14:46;12.60;;;8.90;;
1799;SDS011;919;48.274;12.292;2023-12-07T14:17:13;11.53;;;8.70;;
1799;SDS011;919;48.274;12.292;2023-12-07T14:19:42;17.97;;;9.40;;
1799;SDS011;919;48.274;12.292;2023-12-07T14:22:09;15.73;;;8.00;;
1799;SDS011;919;48.274;12.292;2023-12-07T14:24:36;11.07;;;9.00;;
1799;SDS011;919;48.274;12.292;2023-12-07T14:27:03;14.43;;;9.77;;
1799;SDS011;919;48.274;12.292;2023-12-07T14:29:31;13.87;;;9.53;;
1799;SDS011;919;48.274;12.292;2023-12-07T14:31:58;12.80;;;8.70;;
1799;SDS011;919;48.274;12.292;2023-12-07T14:34:25;12.87;;;9.90;;
1799;SDS011;919;48.274;12.292;2023-12-07T14:36:54;13.13;;;8.57;;
1799;SDS011;919;48.274;12.292;2023-12-07T14:39:20;13.40;;;8.83;;
1799;SDS011;919;48.274;12.292;2023-12-07T14:41:47;8.93;;;7.97;;
1799;SDS011;919;48.274;12.292;2023-12-07T14:44:15;12.00;;;8.00;;
1799;SDS011;919;48.274;12.292;2023-12-07T14:46:43;13.40;;;8.93;;
1799;SDS011;919;48.274;12.292;2023-12-07T14:49:11;11.77;;;7.47;;
1799;SDS011;919;48.274;12.292;2023-12-07T14:51:38;10.07;;;7.60;;
1799;SDS011;919;48.274;12.292;2023-12-07T14:54:07;11.00;;;8.33;;
1799;SDS011;919;48.274;12.292;2023-12-07T14:56:34;13.10;;;8.70;;
1799;SDS011;919;48.274;12.292;2023-12-07T14:59:01;14.10;;;8.30;;
1799;SDS011;919;48.274;12.292;2023-12-07T15:01:28;11.80;;;7.40;;